Time;durP1;ratioP1;P1;durP2;ratioP2;P2;SDS_P1;SDS_P2;PMS_P1;PMS_P2;Temp;Humidity;BMP_temperature;BMP_pressure;BME280_temperature;BME280_humidity;BME280_pressure;Samples;Min_cycle;Max_cycle;Signal;HPM_P1;HPM_P2
2023/02/22 00:01:27;;;;;;;2.57;1.83;;;;;;;;;;5118131;28;20578;-85
2023/02/22 00:03:53;;;;;;;1.60;1.50;;;;;;;;;;5118227;28;20230;-85
2023/02/22 00:06:23;;;;;;;2.80;1.90;;;;;;;;;;5118063;28;20213;-85
2023/02/22 00:08:51;;;;;;;2.13;1.80;;;;;;;;;;5117642;28;20670;-85
2023/02/22 00:11:19;;;;;;;3.50;2.20;;;;;;;;;;5116109;28;20743;-85
2023/02/22 00:13:49;;;;;;;2.47;1.70;;;;;;;;;;5114694;28;20195;-84
2023/02/22 00:16:18;;;;;;;1.90;1.70;;;;;;;;;;5114343;28;20702;-85
2023/02/22 00:18:45;;;;;;;1.77;1.63;;;;;;;;;;5112181;28;20211;-85
2023/02/22 00:21:13;;;;;;;3.33;1.70;;;;;;;;;;5103352;28;20199;-85
2023/02/22 00:23:45;;;;;;;3.13;1.80;;;;;;;;;;5101200;28;20215;-85
2023/02/22 00:26:12;;;;;;;1.73;1.60;;;;;;;;;;5114801;28;20760;-85
2023/02/22 00:28:41;;;;;;;2.77;1.40;;;;;;;;;;5100781;28;20203;-85
2023/02/22 00:31:09;;;;;;;1.43;1.33;;;;;;;;;;5114389;28;20260;-85
2023/02/22 00:33:38;;;;;;;2.00;1.80;;;;;;;;;;5114364;28;20204;-86
2023/02/22 00:36:06;;;;;;;5.37;2.10;;;;;;;;;;5114803;28;20223;-87
2023/02/22 00:38:33;;;;;;;1.97;1.77;;;;;;;;;;5114544;28;20200;-85
2023/02/22 00:40:59;;;;;;;2.50;1.60;;;;;;;;;;5114203;28;20215;-85
2023/02/22 00:43:26;;;;;;;2.40;1.93;;;;;;;;;;5114385;28;20207;-85
2023/02/22 00:45:53;;;;;;;1.80;1.70;;;;;;;;;;5114245;28;20211;-86
2023/02/22 00:48:21;;;;;;;1.63;1.53;;;;;;;;;;5108067;28;20263;-86
2023/02/22 00:50:49;;;;;;;2.80;1.80;;;;;;;;;;5094009;28;20575;-86
2023/02/22 00:53:16;;;;;;;1.97;1.47;;;;;;;;;;5113989;28;20598;-86
2023/02/22 00:55:43;;;;;;;1.70;1.50;;;;;;;;;;5113861;28;20203;-86
2023/02/22 00:58:10;;;;;;;3.00;1.77;;;;;;;;;;5113858;28;20227;-86
2023/02/22 01:00:39;;;;;;;2.13;1.63;;;;;;;;;;5114305;28;20211;-87
2023/02/22 01:03:06;;;;;;;4.83;2.20;;;;;;;;;;5114409;28;20207;-86
2023/02/22 01:05:34;;;;;;;2.30;1.83;;;;;;;;;;5099077;28;20713;-86
2023/02/22 01:08:02;;;;;;;2.87;2.37;;;;;;;;;;5101771;28;20207;-85
2023/02/22 01:10:31;;;;;;;2.93;2.13;;;;;;;;;;5113574;28;20686;-85
2023/02/22 01:12:58;;;;;;;2.30;1.87;;;;;;;;;;5114057;28;20666;-85
2023/02/22 01:15:27;;;;;;;2.07;1.70;;;;;;;;;;5113816;28;20219;-86
2023/02/22 01:17:55;;;;;;;1.70;1.60;;;;;;;;;;5104187;28;20224;-86
2023/02/22 01:20:23;;;;;;;1.60;1.50;;;;;;;;;;5093120;28;20196;-85
2023/02/22 01:22:53;;;;;;;1.70;1.60;;;;;;;;;;5102289;28;20212;-86
2023/02/22 01:25:22;;;;;;;1.70;1.60;;;;;;;;;;5113609;28;20199;-85
2023/02/22 01:27:49;;;;;;;3.93;1.80;;;;;;;;;;5103410;28;20212;-86
2023/02/22 01:30:20;;;;;;;1.83;1.43;;;;;;;;;;5106527;28;20715;-86
2023/02/22 01:32:47;;;;;;;2.33;1.53;;;;;;;;;;5104546;28;20214;-85
2023/02/22 01:35:17;;;;;;;1.73;1.50;;;;;;;;;;5113378;28;20640;-86
2023/02/22 01:37:44;;;;;;;1.77;1.67;;;;;;;;;;5113309;28;20676;-85
2023/02/22 01:40:17;;;;;;;1.50;1.40;;;;;;;;;;5112983;28;20207;-86
2023/02/22 01:42:44;;;;;;;1.80;1.43;;;;;;;;;;5113173;28;20203;-86
2023/02/22 01:45:38;;;;;;;1.83;1.50;;;;;;;;;;5113062;28;20252;-84
2023/02/22 01:48:08;;;;;;;2.23;1.60;;;;;;;;;;5096251;28;20228;-86
2023/02/22 01:50:39;;;;;;;3.40;2.30;;;;;;;;;;5104231;28;20203;-85
2023/02/22 01:53:06;;;;;;;4.27;2.67;;;;;;;;;;5113003;28;20207;-90
2023/02/22 01:55:35;;;;;;;1.60;1.50;;;;;;;;;;5112913;28;20564;-86
2023/02/22 01:58:03;;;;;;;2.43;1.77;;;;;;;;;;5107388;28;20224;-86
2023/02/22 02:00:29;;;;;;;1.87;1.70;;;;;;;;;;5104907;28;20721;-85
2023/02/22 02:03:00;;;;;;;1.30;1.20;;;;;;;;;;5098898;28;20211;-85
2023/02/22 02:05:30;;;;;;;1.40;1.30;;;;;;;;;;5112766;28;20214;-85
2023/02/22 02:07:58;;;;;;;1.50;1.40;;;;;;;;;;5099124;28;20293;-86
2023/02/22 02:10:24;;;;;;;6.50;3.00;;;;;;;;;;5112501;28;20641;-86
2023/02/22 02:12:53;;;;;;;16.37;7.77;;;;;;;;;;5104657;28;20748;-85
2023/02/22 02:15:23;;;;;;;212.87;73.83;;;;;;;;;;5107343;28;20204;-86
2023/02/22 02:17:51;;;;;;;1091.93;481.27;;;;;;;;;;5103647;28;20232;-86
2023/02/22 02:20:24;;;;;;;244.70;94.80;;;;;;;;;;5107687;28;20204;-86
2023/02/22 02:22:55;;;;;;;43.70;18.77;;;;;;;;;;5102479;28;20610;-86
2023/02/22 02:25:44;;;;;;;6.97;4.30;;;;;;;;;;5096207;28;20207;-86
2023/02/22 02:28:34;;;;;;;5.67;2.87;;;;;;;;;;5098348;28;20208;-86
2023/02/22 02:31:38;;;;;;;2.83;1.90;;;;;;;;;;5102590;28;20264;-86
2023/02/22 02:34:09;;;;;;;2.80;1.60;;;;;;;;;;5103904;28;20203;-86
2023/02/22 02:36:40;;;;;;;2.33;1.70;;;;;;;;;;5112071;28;20268;-86
2023/02/22 02:39:14;;;;;;;2.17;1.60;;;;;;;;;;5112289;28;20579;-87
2023/02/22 02:41:44;;;;;;;2.30;2.07;;;;;;;;;;5111723;28;20207;-86
2023/02/22 02:44:14;;;;;;;1.73;1.37;;;;;;;;;;5112355;28;20208;-86
2023/02/22 02:46:47;;;;;;;1.93;1.50;;;;;;;;;;5106259;28;20282;-86
2023/02/22 02:49:19;;;;;;;2.40;1.77;;;;;;;;;;5092236;28;20204;-87
2023/02/22 02:51:49;;;;;;;2.83;1.53;;;;;;;;;;5111591;28;20199;-86
2023/02/22 02:54:16;;;;;;;1.70;1.60;;;;;;;;;;5096966;28;20227;-86
2023/02/22 02:56:43;;;;;;;1.63;1.50;;;;;;;;;;5100252;28;20276;-86
2023/02/22 02:59:25;;;;;;;1.83;1.67;;;;;;;;;;5109644;28;20192;-86
2023/02/22 03:02:03;;;;;;;1.30;1.30;;;;;;;;;;5102983;28;20645;-86
2023/02/22 03:04:38;;;;;;;1.20;1.10;;;;;;;;;;5111785;28;20203;-85
2023/02/22 03:07:31;;;;;;;2.10;1.73;;;;;;;;;;5111888;28;20238;-85
2023/02/22 03:10:12;;;;;;;1.63;1.30;;;;;;;;;;5111859;28;20211;-86
2023/02/22 03:12:44;;;;;;;1.60;1.50;;;;;;;;;;5111542;28;20596;-85
2023/02/22 03:15:20;;;;;;;1.37;1.27;;;;;;;;;;5111681;28;20215;-86
2023/02/22 03:17:52;;;;;;;2.43;1.50;;;;;;;;;;5111925;28;20276;-86
2023/02/22 03:20:30;;;;;;;2.53;1.27;;;;;;;;;;5111831;28;20203;-86
2023/02/22 03:22:59;;;;;;;1.30;1.20;;;;;;;;;;5111887;28;20211;-84
2023/02/22 03:25:33;;;;;;;1.43;1.33;;;;;;;;;;5111422;28;20203;-84
2023/02/22 03:28:03;;;;;;;1.67;1.40;;;;;;;;;;5111354;28;20281;-86
2023/02/22 03:30:34;;;;;;;1.73;1.60;;;;;;;;;;5111570;28;20207;-85
2023/02/22 03:33:07;;;;;;;1.27;1.17;;;;;;;;;;5111971;28;20201;-85
2023/02/22 03:35:37;;;;;;;1.57;1.30;;;;;;;;;;5111520;28;20283;-85
2023/02/22 03:38:07;;;;;;;1.50;1.37;;;;;;;;;;5111572;28;20227;-85
2023/02/22 03:40:35;;;;;;;1.50;1.40;;;;;;;;;;5111826;28;20269;-84
2023/02/22 03:43:05;;;;;;;1.63;1.53;;;;;;;;;;5112194;28;20215;-85
2023/02/22 03:45:32;;;;;;;2.13;1.23;;;;;;;;;;5111377;28;20207;-86
2023/02/22 03:48:05;;;;;;;1.40;1.30;;;;;;;;;;5112438;28;20280;-86
2023/02/22 03:50:36;;;;;;;1.40;1.30;;;;;;;;;;5095482;28;20204;-86
2023/02/22 03:53:03;;;;;;;2.80;2.50;;;;;;;;;;5098816;28;20204;-86
2023/02/22 03:55:31;;;;;;;2.70;2.33;;;;;;;;;;5115112;28;20207;-85
2023/02/22 03:57:59;;;;;;;2.37;1.93;;;;;;;;;;5115211;28;20227;-86
2023/02/22 04:00:31;;;;;;;1.37;1.23;;;;;;;;;;5103949;28;20223;-83
2023/02/22 04:02:58;;;;;;;1.53;1.43;;;;;;;;;;5100410;28;20208;-85
2023/02/22 04:05:25;;;;;;;1.60;1.50;;;;;;;;;;5105566;28;20675;-92
2023/02/22 04:07:54;;;;;;;1.67;1.53;;;;;;;;;;5109203;28;20755;-87
2023/02/22 04:10:21;;;;;;;1.17;1.07;;;;;;;;;;5114977;28;20230;-85
2023/02/22 04:12:49;;;;;;;1.40;1.30;;;;;;;;;;5114965;28;20226;-84
2023/02/22 04:15:18;;;;;;;1.70;1.57;;;;;;;;;;5101380;28;20256;-85
2023/02/22 04:17:45;;;;;;;1.53;1.43;;;;;;;;;;5114276;28;20233;-84
2023/02/22 04:20:13;;;;;;;1.30;1.20;;;;;;;;;;5114424;28;20211;-85
2023/02/22 04:22:40;;;;;;;1.27;1.10;;;;;;;;;;5105665;28;20299;-84
2023/02/22 04:25:09;;;;;;;1.80;1.43;;;;;;;;;;5110326;28;20223;-85
2023/02/22 04:27:35;;;;;;;1.30;1.20;;;;;;;;;;5114965;28;20207;-84
2023/02/22 04:30:02;;;;;;;1.40;1.30;;;;;;;;;;5114300;28;20212;-84
2023/02/22 04:32:29;;;;;;;1.10;1.10;;;;;;;;;;5114555;28;20207;-85
2023/02/22 04:34:56;;;;;;;1.23;1.20;;;;;;;;;;5114273;28;20215;-87
2023/02/22 04:37:22;;;;;;;1.50;1.40;;;;;;;;;;5100057;28;20216;-87
2023/02/22 04:39:49;;;;;;;1.17;1.10;;;;;;;;;;5104455;28;20197;-87
2023/02/22 04:42:17;;;;;;;1.80;1.70;;;;;;;;;;5094486;28;20208;-87
2023/02/22 04:44:44;;;;;;;1.40;1.30;;;;;;;;;;5094139;28;20675;-87
2023/02/22 04:47:11;;;;;;;1.70;1.33;;;;;;;;;;5107055;28;20262;-88
2023/02/22 04:49:38;;;;;;;1.27;1.20;;;;;;;;;;5104480;28;20276;-88
2023/02/22 04:52:05;;;;;;;1.00;1.00;;;;;;;;;;5113905;28;20210;-87
2023/02/22 04:54:32;;;;;;;3.13;1.10;;;;;;;;;;5114145;28;20704;-87
2023/02/22 04:56:59;;;;;;;1.40;1.30;;;;;;;;;;5113731;28;20263;-87
2023/02/22 04:59:27;;;;;;;1.60;1.50;;;;;;;;;;5113533;28;20300;-87
2023/02/22 05:01:54;;;;;;;1.60;1.50;;;;;;;;;;5100395;28;20214;-87
2023/02/22 05:04:21;;;;;;;1.80;1.70;;;;;;;;;;5102472;28;20253;-87
2023/02/22 05:06:48;;;;;;;2.93;1.73;;;;;;;;;;5097897;28;20257;-87
2023/02/22 05:09:15;;;;;;;2.63;1.60;;;;;;;;;;5102009;28;20299;-89
2023/02/22 05:11:42;;;;;;;2.20;1.50;;;;;;;;;;5111349;28;20211;-85
2023/02/22 05:14:08;;;;;;;1.50;1.30;;;;;;;;;;5112872;28;20207;-89
2023/02/22 05:16:37;;;;;;;2.73;1.87;;;;;;;;;;5112439;28;20207;-86
2023/02/22 05:19:04;;;;;;;3.43;2.13;;;;;;;;;;5112863;28;20227;-86
2023/02/22 05:21:30;;;;;;;1.93;1.50;;;;;;;;;;5100128;28;20208;-86
2023/02/22 05:23:57;;;;;;;2.60;2.00;;;;;;;;;;5112957;28;20834;-86
2023/02/22 05:26:24;;;;;;;3.47;1.77;;;;;;;;;;5113115;28;20257;-86
2023/02/22 05:28:51;;;;;;;5.73;2.07;;;;;;;;;;5113579;28;20211;-86
2023/02/22 05:31:17;;;;;;;6.97;2.03;;;;;;;;;;5113171;28;20215;-87
2023/02/22 05:33:46;;;;;;;2.13;1.43;;;;;;;;;;5112637;28;20191;-86
2023/02/22 05:36:12;;;;;;;2.27;1.63;;;;;;;;;;5112509;28;20751;-86
2023/02/22 05:38:43;;;;;;;2.13;1.80;;;;;;;;;;5099830;28;20227;-86
2023/02/22 05:41:10;;;;;;;2.47;1.50;;;;;;;;;;5111727;28;20286;-86
2023/02/22 05:43:37;;;;;;;1.57;1.40;;;;;;;;;;5091964;28;20411;-85
2023/02/22 05:46:04;;;;;;;2.10;1.57;;;;;;;;;;5092173;28;20201;-86
2023/02/22 05:48:31;;;;;;;1.60;1.30;;;;;;;;;;5100864;28;20207;-86
2023/02/22 05:50:59;;;;;;;1.20;1.10;;;;;;;;;;5112570;28;20203;-86
2023/02/22 05:53:26;;;;;;;3.17;1.67;;;;;;;;;;5112717;28;20203;-86
2023/02/22 05:55:53;;;;;;;1.40;1.30;;;;;;;;;;5112587;28;20203;-86
2023/02/22 05:58:20;;;;;;;1.67;1.57;;;;;;;;;;5112835;28;20230;-86
2023/02/22 06:00:46;;;;;;;2.67;1.80;;;;;;;;;;5109730;28;20200;-86
2023/02/22 06:03:13;;;;;;;1.30;1.20;;;;;;;;;;5091832;28;20207;-87
2023/02/22 06:05:40;;;;;;;4.30;2.87;;;;;;;;;;5108473;28;20261;-85
2023/02/22 06:08:09;;;;;;;6.90;3.33;;;;;;;;;;5112562;28;20263;-85
2023/02/22 06:10:36;;;;;;;5.07;4.13;;;;;;;;;;5109562;28;20207;-86
2023/02/22 06:13:05;;;;;;;4.50;3.03;;;;;;;;;;5101398;28;20210;-86
2023/02/22 06:15:32;;;;;;;3.37;2.67;;;;;;;;;;5109149;28;20687;-86
2023/02/22 06:17:59;;;;;;;1.70;1.60;;;;;;;;;;5101969;28;20223;-85
2023/02/22 06:20:30;;;;;;;1.57;1.47;;;;;;;;;;5112133;28;20331;-86
2023/02/22 06:22:58;;;;;;;1.90;1.77;;;;;;;;;;5101308;28;20711;-85
2023/02/22 06:25:30;;;;;;;2.23;2.00;;;;;;;;;;5105336;28;20765;-86
2023/02/22 06:27:56;;;;;;;3.63;2.47;;;;;;;;;;5092005;28;20200;-85
2023/02/22 06:30:25;;;;;;;9.00;1.77;;;;;;;;;;5110589;28;20211;-86
2023/02/22 06:32:51;;;;;;;2.73;2.00;;;;;;;;;;5112122;28;20682;-85
2023/02/22 06:35:19;;;;;;;8.93;2.83;;;;;;;;;;5106425;28;20261;-85
2023/02/22 06:37:45;;;;;;;2.53;2.33;;;;;;;;;;5103951;28;20681;-85
2023/02/22 06:40:13;;;;;;;2.23;1.83;;;;;;;;;;5112095;28;20203;-87
2023/02/22 06:42:41;;;;;;;2.00;1.70;;;;;;;;;;5111927;28;20210;-85
2023/02/22 06:45:09;;;;;;;1.60;1.50;;;;;;;;;;5111706;28;20199;-86
2023/02/22 06:47:39;;;;;;;2.50;2.30;;;;;;;;;;5111824;28;20702;-87
2023/02/22 06:50:06;;;;;;;2.03;1.60;;;;;;;;;;5111733;28;20201;-85
2023/02/22 06:52:33;;;;;;;2.57;2.37;;;;;;;;;;5097930;28;20699;-85
2023/02/22 06:55:00;;;;;;;2.13;1.93;;;;;;;;;;5103897;28;20206;-86
2023/02/22 06:57:26;;;;;;;4.83;2.03;;;;;;;;;;5106525;28;20208;-85
2023/02/22 06:59:55;;;;;;;2.63;1.97;;;;;;;;;;5111683;28;20237;-85
2023/02/22 07:02:21;;;;;;;5.90;1.83;;;;;;;;;;5098086;28;20206;-86
2023/02/22 07:04:48;;;;;;;2.27;1.90;;;;;;;;;;5102998;28;20210;-86
2023/02/22 07:07:15;;;;;;;1.50;1.40;;;;;;;;;;5107026;28;20247;-83
2023/02/22 07:09:42;;;;;;;5.10;2.87;;;;;;;;;;5102339;28;20199;-83
2023/02/22 07:12:09;;;;;;;1.70;1.40;;;;;;;;;;5105804;28;20676;-84
2023/02/22 07:14:35;;;;;;;6.37;1.73;;;;;;;;;;5111346;28;20196;-85
2023/02/22 07:17:03;;;;;;;6.10;3.20;;;;;;;;;;5111275;28;20213;-83
2023/02/22 07:19:30;;;;;;;4.57;3.40;;;;;;;;;;5110924;28;20735;-85
2023/02/22 07:21:58;;;;;;;3.07;2.30;;;;;;;;;;5113672;28;20206;-83
2023/02/22 07:24:27;;;;;;;2.57;1.80;;;;;;;;;;5115749;28;20203;-83
2023/02/22 07:26:54;;;;;;;2.50;2.30;;;;;;;;;;5115447;28;20665;-82
2023/02/22 07:29:21;;;;;;;2.50;2.00;;;;;;;;;;5115312;28;20203;-82
2023/02/22 07:31:50;;;;;;;2.50;2.27;;;;;;;;;;5101417;28;20207;-83
2023/02/22 07:34:18;;;;;;;2.40;2.20;;;;;;;;;;5115530;28;20210;-83
2023/02/22 07:36:44;;;;;;;4.67;3.00;;;;;;;;;;5111326;28;20200;-84
2023/02/22 07:39:11;;;;;;;3.13;1.90;;;;;;;;;;5094547;28;20239;-85
2023/02/22 07:41:38;;;;;;;2.70;2.30;;;;;;;;;;5108668;28;20196;-83
2023/02/22 07:44:05;;;;;;;2.40;1.93;;;;;;;;;;5105469;28;20628;-83
2023/02/22 07:46:32;;;;;;;1.97;1.80;;;;;;;;;;5114947;28;20690;-83
2023/02/22 07:48:59;;;;;;;2.60;2.20;;;;;;;;;;5104156;28;20298;-83
2023/02/22 07:51:27;;;;;;;2.43;2.27;;;;;;;;;;5107813;28;20208;-83
2023/02/22 07:53:54;;;;;;;6.07;2.33;;;;;;;;;;5105784;28;20201;-83
2023/02/22 07:56:21;;;;;;;2.87;1.73;;;;;;;;;;5101022;28;20206;-83
2023/02/22 07:58:47;;;;;;;3.57;2.00;;;;;;;;;;5103543;28;20293;-84
2023/02/22 08:01:15;;;;;;;4.73;2.50;;;;;;;;;;5112506;28;20204;-84
2023/02/22 08:03:46;;;;;;;4.40;2.87;;;;;;;;;;5114887;28;20692;-83
2023/02/22 08:06:13;;;;;;;4.77;3.30;;;;;;;;;;5109024;28;20681;-83
2023/02/22 08:08:41;;;;;;;5.00;3.67;;;;;;;;;;5094734;28;20644;-83
2023/02/22 08:11:08;;;;;;;7.37;3.30;;;;;;;;;;5107802;28;20203;-83
2023/02/22 08:13:37;;;;;;;2.53;2.33;;;;;;;;;;5107828;28;20205;-82
2023/02/22 08:16:03;;;;;;;5.20;2.63;;;;;;;;;;5093669;28;20213;-83
2023/02/22 08:18:30;;;;;;;2.90;2.37;;;;;;;;;;5108916;28;20677;-82
2023/02/22 08:20:57;;;;;;;2.47;2.27;;;;;;;;;;5114519;28;20681;-83
2023/02/22 08:23:25;;;;;;;5.27;1.93;;;;;;;;;;5112414;28;20754;-83
2023/02/22 08:25:54;;;;;;;2.93;1.97;;;;;;;;;;5102404;28;20597;-83
2023/02/22 08:28:22;;;;;;;2.33;2.20;;;;;;;;;;5114272;28;20628;-82
2023/02/22 08:30:50;;;;;;;3.27;1.93;;;;;;;;;;5104702;28;20685;-82
2023/02/22 08:33:18;;;;;;;2.97;1.60;;;;;;;;;;5108998;28;20211;-82
2023/02/22 08:35:47;;;;;;;2.17;1.97;;;;;;;;;;5114015;28;20284;-83
2023/02/22 08:38:20;;;;;;;3.40;1.90;;;;;;;;;;5100179;28;20680;-83
2023/02/22 08:40:48;;;;;;;1.90;1.60;;;;;;;;;;5102640;28;20211;-83
2023/02/22 08:43:16;;;;;;;3.33;1.60;;;;;;;;;;5098693;28;20194;-84
2023/02/22 08:45:45;;;;;;;5.07;2.20;;;;;;;;;;5101667;28;20207;-83
2023/02/22 08:48:13;;;;;;;2.10;1.90;;;;;;;;;;5113757;28;20263;-82
2023/02/22 08:50:43;;;;;;;2.10;1.90;;;;;;;;;;5114208;28;20229;-82
2023/02/22 08:53:10;;;;;;;4.47;1.60;;;;;;;;;;5093331;28;20214;-83
2023/02/22 08:55:38;;;;;;;2.23;2.03;;;;;;;;;;5106772;28;20764;-83
2023/02/22 08:58:08;;;;;;;3.87;2.20;;;;;;;;;;5093192;28;20207;-83
2023/02/22 09:00:37;;;;;;;2.93;2.10;;;;;;;;;;5108073;28;21186;-83
2023/02/22 09:03:05;;;;;;;2.13;1.93;;;;;;;;;;5113394;28;20208;-83
2023/02/22 09:05:35;;;;;;;3.63;1.83;;;;;;;;;;5111304;28;20214;-82
2023/02/22 09:08:02;;;;;;;2.27;1.87;;;;;;;;;;5102097;28;20207;-82
2023/02/22 09:10:32;;;;;;;2.70;2.50;;;;;;;;;;5099604;28;20262;-83
2023/02/22 09:12:59;;;;;;;1.87;1.77;;;;;;;;;;5113297;28;20207;-82
2023/02/22 09:15:26;;;;;;;2.13;1.67;;;;;;;;;;5113661;28;20290;-83
2023/02/22 09:17:55;;;;;;;2.77;1.80;;;;;;;;;;5113624;28;20207;-82
2023/02/22 09:20:23;;;;;;;3.53;2.13;;;;;;;;;;5096866;28;20726;-82
2023/02/22 09:22:50;;;;;;;3.70;1.97;;;;;;;;;;5102418;28;20199;-82
2023/02/22 09:25:19;;;;;;;1.80;1.70;;;;;;;;;;5099384;28;20211;-83
2023/02/22 09:27:47;;;;;;;2.67;2.17;;;;;;;;;;5112870;28;20203;-83
2023/02/22 09:30:18;;;;;;;2.40;2.20;;;;;;;;;;5099059;28;20203;-83
2023/02/22 09:32:44;;;;;;;2.13;1.53;;;;;;;;;;5112857;28;20199;-82
2023/02/22 09:35:13;;;;;;;2.10;1.90;;;;;;;;;;5094149;28;20208;-82
2023/02/22 09:37:43;;;;;;;1.70;1.60;;;;;;;;;;5104593;28;20634;-82
2023/02/22 09:40:16;;;;;;;2.07;1.87;;;;;;;;;;5093129;28;20235;-82
2023/02/22 09:42:49;;;;;;;3.63;1.83;;;;;;;;;;5105922;28;20743;-82
2023/02/22 09:45:22;;;;;;;2.60;2.13;;;;;;;;;;5099804;28;20203;-84
2023/02/22 09:47:53;;;;;;;2.60;1.80;;;;;;;;;;5111258;28;20230;-82
2023/02/22 09:50:23;;;;;;;2.00;1.90;;;;;;;;;;5101757;28;20199;-82
2023/02/22 09:52:54;;;;;;;3.83;1.80;;;;;;;;;;5099340;28;20203;-82
2023/02/22 09:55:29;;;;;;;4.63;1.90;;;;;;;;;;5112319;28;20214;-82
2023/02/22 09:57:58;;;;;;;4.77;1.70;;;;;;;;;;5112040;28;20674;-81
2023/02/22 10:00:31;;;;;;;3.47;1.60;;;;;;;;;;5099200;28;20701;-82
2023/02/22 10:03:06;;;;;;;2.57;2.37;;;;;;;;;;5099027;28;20199;-82
2023/02/22 10:05:38;;;;;;;1.57;1.47;;;;;;;;;;5110794;28;20218;-82
2023/02/22 10:08:08;;;;;;;1.93;1.80;;;;;;;;;;5101446;28;20203;-82
2023/02/22 10:10:38;;;;;;;2.37;1.80;;;;;;;;;;5097554;28;20200;-82
2023/02/22 10:13:12;;;;;;;2.80;1.80;;;;;;;;;;5112000;28;20203;-81
2023/02/22 10:15:47;;;;;;;2.27;1.80;;;;;;;;;;5111667;28;21190;-82
2023/02/22 10:18:46;;;;;;;1.43;1.33;;;;;;;;;;5100215;28;20253;-82
2023/02/22 10:21:24;;;;;;;2.70;2.50;;;;;;;;;;5067048;28;20686;-82
2023/02/22 10:23:57;;;;;;;1.90;1.80;;;;;;;;;;5091705;28;20230;-83
2023/02/22 10:26:27;;;;;;;4.97;1.83;;;;;;;;;;5091344;28;20211;-82
2023/02/22 10:28:58;;;;;;;2.17;1.60;;;;;;;;;;5092033;28;20227;-83
2023/02/22 10:31:30;;;;;;;1.90;1.80;;;;;;;;;;5105219;28;20207;-82
2023/02/22 10:33:59;;;;;;;2.87;1.53;;;;;;;;;;5111639;28;20207;-82
2023/02/22 10:36:27;;;;;;;2.07;1.87;;;;;;;;;;5111712;28;20204;-82
2023/02/22 10:38:55;;;;;;;7.60;2.17;;;;;;;;;;5111812;28;21018;-82
2023/02/22 10:41:28;;;;;;;2.37;1.77;;;;;;;;;;5109746;28;20203;-82
2023/02/22 10:43:55;;;;;;;2.17;1.97;;;;;;;;;;5101377;28;20623;-82
2023/02/22 10:46:22;;;;;;;1.60;1.50;;;;;;;;;;5108544;28;20228;-82
2023/02/22 10:48:51;;;;;;;2.13;1.93;;;;;;;;;;5101322;28;20705;-82
2023/02/22 10:51:18;;;;;;;2.70;1.57;;;;;;;;;;5111324;28;20211;-81
2023/02/22 10:53:56;;;;;;;3.60;1.87;;;;;;;;;;5111233;28;20203;-82
2023/02/22 10:56:26;;;;;;;1.53;1.43;;;;;;;;;;5097258;28;20203;-82
2023/02/22 10:58:56;;;;;;;5.40;1.40;;;;;;;;;;5097974;28;20204;-82
2023/02/22 11:01:35;;;;;;;1.43;1.33;;;;;;;;;;5104669;28;20200;-82
2023/02/22 11:04:08;;;;;;;1.73;1.63;;;;;;;;;;5090999;28;20211;-82
2023/02/22 11:06:35;;;;;;;4.47;1.93;;;;;;;;;;5100528;28;20196;-82
2023/02/22 11:09:11;;;;;;;1.63;1.37;;;;;;;;;;5110969;28;20203;-82
2023/02/22 11:11:40;;;;;;;4.87;1.90;;;;;;;;;;5111007;28;20567;-82
2023/02/22 11:14:09;;;;;;;1.90;1.60;;;;;;;;;;5107128;28;20201;-82
2023/02/22 11:16:38;;;;;;;5.90;2.07;;;;;;;;;;5102732;28;20226;-81
2023/02/22 11:19:12;;;;;;;6.13;1.60;;;;;;;;;;5092194;28;20204;-82
2023/02/22 11:21:39;;;;;;;3.40;2.00;;;;;;;;;;5090790;28;20644;-82
2023/02/22 11:24:09;;;;;;;2.07;1.57;;;;;;;;;;5111364;28;20214;-81
2023/02/22 11:26:42;;;;;;;1.47;1.37;;;;;;;;;;5110156;28;20210;-82
2023/02/22 11:29:19;;;;;;;1.60;1.50;;;;;;;;;;5099246;28;20583;-82
2023/02/22 11:31:47;;;;;;;1.50;1.40;;;;;;;;;;5110871;28;20207;-82
2023/02/22 11:34:33;;;;;;;2.30;1.77;;;;;;;;;;5111284;28;20248;-82
2023/02/22 11:37:28;;;;;;;1.40;1.30;;;;;;;;;;5097787;28;20218;-82
2023/02/22 11:40:10;;;;;;;3.60;1.67;;;;;;;;;;5110403;28;20717;-82
2023/02/22 11:42:38;;;;;;;1.70;1.60;;;;;;;;;;5110932;28;20207;-82
2023/02/22 11:45:10;;;;;;;1.73;1.37;;;;;;;;;;5097911;28;20214;-82
2023/02/22 11:47:47;;;;;;;4.43;1.53;;;;;;;;;;5097779;28;20236;-82
2023/02/22 11:50:22;;;;;;;1.53;1.43;;;;;;;;;;5110849;28;20207;-83
2023/02/22 11:52:53;;;;;;;1.47;1.30;;;;;;;;;;5110449;28;20286;-82
2023/02/22 11:55:26;;;;;;;1.83;1.43;;;;;;;;;;5110986;28;20207;-81
2023/02/22 11:58:04;;;;;;;2.17;1.97;;;;;;;;;;5090715;28;20196;-82
2023/02/22 12:00:42;;;;;;;1.70;1.60;;;;;;;;;;5103630;28;20227;-82
2023/02/22 12:03:28;;;;;;;1.40;1.30;;;;;;;;;;5102280;28;20204;-82
2023/02/22 12:06:05;;;;;;;2.30;1.60;;;;;;;;;;5108389;28;20199;-82
2023/02/22 12:08:39;;;;;;;2.07;1.40;;;;;;;;;;5112447;28;20657;-82
2023/02/22 12:11:17;;;;;;;1.50;1.40;;;;;;;;;;5100945;28;20306;-82
2023/02/22 12:13:57;;;;;;;3.23;2.23;;;;;;;;;;5113921;28;20205;-82
2023/02/22 12:16:31;;;;;;;2.80;1.73;;;;;;;;;;5104195;28;20211;-82
2023/02/22 12:19:17;;;;;;;1.50;1.40;;;;;;;;;;5111472;28;20249;-82
2023/02/22 12:21:50;;;;;;;2.17;1.97;;;;;;;;;;5100207;28;20231;-81
2023/02/22 12:24:20;;;;;;;3.07;1.57;;;;;;;;;;5093675;28;20196;-81
2023/02/22 12:26:49;;;;;;;1.73;1.63;;;;;;;;;;5107321;28;20199;-82
2023/02/22 12:29:25;;;;;;;1.37;1.27;;;;;;;;;;5102664;28;20690;-81
2023/02/22 12:31:56;;;;;;;2.70;1.93;;;;;;;;;;5096600;28;20200;-82
2023/02/22 12:34:29;;;;;;;1.50;1.40;;;;;;;;;;5093672;28;20204;-81
2023/02/22 12:37:01;;;;;;;1.47;1.37;;;;;;;;;;5112288;28;20199;-83
2023/02/22 12:39:38;;;;;;;1.77;1.67;;;;;;;;;;5101442;28;20290;-82
2023/02/22 12:42:13;;;;;;;2.27;1.50;;;;;;;;;;5100725;28;20700;-81
2023/02/22 12:44:43;;;;;;;1.97;1.57;;;;;;;;;;5113161;28;20744;-81
2023/02/22 12:47:15;;;;;;;1.70;1.60;;;;;;;;;;5113992;28;20246;-81
2023/02/22 12:49:45;;;;;;;1.90;1.70;;;;;;;;;;5110193;28;20680;-82
2023/02/22 12:52:16;;;;;;;3.07;2.33;;;;;;;;;;5104479;28;20203;-82
2023/02/22 12:54:55;;;;;;;6.63;1.67;;;;;;;;;;5113116;28;20203;-82
2023/02/22 12:57:31;;;;;;;1.90;1.50;;;;;;;;;;5100642;28;20207;-81
2023/02/22 13:00:02;;;;;;;1.47;1.37;;;;;;;;;;5101162;28;20227;-82
2023/02/22 13:02:32;;;;;;;5.00;1.53;;;;;;;;;;5099506;28;20204;-82
2023/02/22 13:05:00;;;;;;;1.40;1.30;;;;;;;;;;5113797;28;20725;-82
2023/02/22 13:07:37;;;;;;;1.30;1.20;;;;;;;;;;5110655;28;20219;-82
2023/02/22 13:10:23;;;;;;;2.20;2.00;;;;;;;;;;5104133;28;20235;-83
2023/02/22 13:12:56;;;;;;;1.73;1.60;;;;;;;;;;5092681;28;20196;-81
2023/02/22 13:15:28;;;;;;;2.60;1.80;;;;;;;;;;5092558;28;20719;-82
2023/02/22 13:18:02;;;;;;;10.17;1.83;;;;;;;;;;5102519;28;20629;-81
2023/02/22 13:20:31;;;;;;;1.70;1.60;;;;;;;;;;5099129;28;20215;-85
2023/02/22 13:23:02;;;;;;;2.33;1.63;;;;;;;;;;5113084;28;20257;-86
2023/02/22 13:25:36;;;;;;;1.70;1.57;;;;;;;;;;5113079;28;20199;-81
2023/02/22 13:28:21;;;;;;;1.97;1.60;;;;;;;;;;5113003;28;20210;-82
2023/02/22 13:30:58;;;;;;;1.50;1.40;;;;;;;;;;5103479;28;20200;-81
2023/02/22 13:33:38;;;;;;;1.43;1.30;;;;;;;;;;5106223;28;20200;-81
2023/02/22 13:36:21;;;;;;;1.50;1.40;;;;;;;;;;5105260;28;20207;-82
2023/02/22 13:39:08;;;;;;;3.53;1.63;;;;;;;;;;5100717;28;20208;-81
2023/02/22 13:41:53;;;;;;;2.33;1.50;;;;;;;;;;5112565;28;20223;-81
2023/02/22 13:44:36;;;;;;;1.47;1.37;;;;;;;;;;5112919;28;20203;-82
2023/02/22 13:47:35;;;;;;;2.53;1.80;;;;;;;;;;5112573;28;20236;-82
2023/02/22 13:50:26;;;;;;;1.57;1.47;;;;;;;;;;5092252;28;20207;-82
2023/02/22 13:52:55;;;;;;;3.33;1.57;;;;;;;;;;5109500;28;20199;-81
2023/02/22 13:55:26;;;;;;;2.03;1.73;;;;;;;;;;5111940;28;20701;-81
2023/02/22 13:58:01;;;;;;;2.47;1.70;;;;;;;;;;5112259;28;20218;-81
2023/02/22 14:00:48;;;;;;;1.70;1.60;;;;;;;;;;5111900;28;20219;-81
2023/02/22 14:03:39;;;;;;;1.63;1.53;;;;;;;;;;5100962;28;20734;-81
2023/02/22 14:06:07;;;;;;;1.63;1.37;;;;;;;;;;5106120;28;20208;-82
2023/02/22 14:08:47;;;;;;;1.90;1.57;;;;;;;;;;5091694;28;20209;-82
2023/02/22 14:11:43;;;;;;;1.60;1.50;;;;;;;;;;5091695;28;20211;-81
2023/02/22 14:14:11;;;;;;;1.33;1.23;;;;;;;;;;5090785;28;20287;-81
2023/02/22 14:16:40;;;;;;;3.33;1.73;;;;;;;;;;5103355;28;20328;-80
2023/02/22 14:19:14;;;;;;;2.07;1.90;;;;;;;;;;5112423;28;20200;-81
2023/02/22 14:21:56;;;;;;;4.77;2.57;;;;;;;;;;5111565;28;20222;-81
2023/02/22 14:24:23;;;;;;;6.53;2.70;;;;;;;;;;5100856;28;20195;-81
2023/02/22 14:26:56;;;;;;;2.97;2.37;;;;;;;;;;5095822;28;20193;-81
2023/02/22 14:29:22;;;;;;;3.50;3.20;;;;;;;;;;5101752;28;20261;-82
2023/02/22 14:32:05;;;;;;;20.20;13.33;;;;;;;;;;5110704;28;20199;-81
2023/02/22 14:34:50;;;;;;;3.80;3.47;;;;;;;;;;5098897;28;20711;-81
2023/02/22 14:37:18;;;;;;;9.70;2.33;;;;;;;;;;5099320;28;20213;-81
2023/02/22 14:39:46;;;;;;;6.67;4.23;;;;;;;;;;5111100;28;20660;-81
2023/02/22 14:42:17;;;;;;;4.60;2.33;;;;;;;;;;5101939;28;20253;-81
2023/02/22 14:44:53;;;;;;;3.37;2.43;;;;;;;;;;5105310;28;20742;-81
2023/02/22 14:47:27;;;;;;;2.37;2.00;;;;;;;;;;5102685;28;20219;-81
2023/02/22 14:49:57;;;;;;;6.20;3.67;;;;;;;;;;5111246;28;20223;-81
2023/02/22 14:52:27;;;;;;;4.27;2.50;;;;;;;;;;5097947;28;20695;-81
2023/02/22 14:55:03;;;;;;;2.77;1.47;;;;;;;;;;5098412;28;20195;-81
2023/02/22 14:57:37;;;;;;;6.27;3.53;;;;;;;;;;5095670;28;20196;-81
2023/02/22 15:00:18;;;;;;;2.43;2.23;;;;;;;;;;5100960;28;20209;-85
2023/02/22 15:02:47;;;;;;;4.97;2.97;;;;;;;;;;5111750;28;20286;-81
2023/02/22 15:05:14;;;;;;;3.80;2.97;;;;;;;;;;5099190;28;20204;-81